Time;durP1;ratioP1;P1;durP2;ratioP2;P2;SDS_P1;SDS_P2;PMS_P1;PMS_P2;Temp;Humidity;BMP_temperature;BMP_pressure;BME280_temperature;BME280_humidity;BME280_pressure;Samples;Min_cycle;Max_cycle;Signal;HPM_P1;HPM_P2
2024/01/30 00:01:58;;;;;;;5.33;4.40;;;16.20;99.90;;;;;;5049500;28;20498;-76
2024/01/30 00:04:24;;;;;;;7.60;4.13;;;16.20;99.90;;;;;;5049094;28;20067;-76
2024/01/30 00:06:51;;;;;;;5.57;3.53;;;16.20;99.90;;;;;;5052879;28;20063;-78
2024/01/30 00:09:16;;;;;;;7.05;4.28;;;16.20;99.90;;;;;;5052024;28;20040;-78
2024/01/30 00:11:42;;;;;;;7.40;4.33;;;16.20;99.90;;;;;;5054982;28;20029;-78
2024/01/30 00:14:08;;;;;;;5.93;4.53;;;16.20;99.90;;;;;;5053074;28;20555;-74
2024/01/30 00:16:33;;;;;;;6.30;4.03;;;16.20;99.90;;;;;;5048684;28;20033;-76
2024/01/30 00:19:02;;;;;;;6.00;4.10;;;16.20;99.90;;;;;;5039904;28;20021;-74
2024/01/30 00:21:28;;;;;;;6.95;4.00;;;16.20;99.90;;;;;;5047759;28;20052;-75
2024/01/30 00:23:53;;;;;;;8.07;4.47;;;16.20;99.90;;;;;;5050591;28;20065;-74
2024/01/30 00:26:20;;;;;;;8.90;4.20;;;16.10;99.90;;;;;;5050883;28;20474;-77
2024/01/30 00:28:46;;;;;;;;;;;16.10;99.90;;;;;;5045287;28;20029;-77
2024/01/30 00:31:12;;;;;;;5.87;3.93;;;16.10;99.90;;;;;;5050100;28;20290;-75
2024/01/30 00:33:39;;;;;;;6.45;3.70;;;16.10;99.90;;;;;;5047601;28;20623;-75
2024/01/30 00:36:06;;;;;;;5.25;3.97;;;16.10;99.90;;;;;;5045276;28;20032;-74
2024/01/30 00:38:32;;;;;;;5.72;3.60;;;16.10;99.90;;;;;;5047100;28;20107;-74
2024/01/30 00:40:58;;;;;;;7.93;3.78;;;16.10;99.90;;;;;;5050382;28;20087;-75
2024/01/30 00:43:25;;;;;;;7.40;4.00;;;16.10;99.90;;;;;;5047561;28;20053;-74
2024/01/30 00:45:52;;;;;;;6.03;3.58;;;16.10;99.90;;;;;;5049688;28;20040;-73
2024/01/30 00:48:18;;;;;;;5.90;3.38;;;16.10;99.90;;;;;;5050046;28;20116;-75
2024/01/30 00:50:44;;;;;;;6.03;4.00;;;16.00;99.90;;;;;;5048294;28;20029;-74
2024/01/30 00:53:10;;;;;;;5.73;3.93;;;16.10;99.90;;;;;;5046574;28;20041;-74
2024/01/30 00:55:36;;;;;;;5.73;3.73;;;16.00;99.90;;;;;;5051897;28;20024;-74
2024/01/30 00:58:02;;;;;;;6.18;3.90;;;16.00;99.90;;;;;;5047778;28;20041;-73
2024/01/30 01:00:29;;;;;;;5.90;3.72;;;16.00;99.90;;;;;;5052143;28;20045;-75
2024/01/30 01:02:55;;;;;;;5.93;3.80;;;16.00;99.90;;;;;;5051285;28;20048;-77
2024/01/30 01:05:21;;;;;;;6.03;3.67;;;16.00;99.90;;;;;;5051994;28;20132;-77
2024/01/30 01:07:50;;;;;;;6.47;3.77;;;16.00;99.90;;;;;;5051534;28;20111;-78
2024/01/30 01:10:17;;;;;;;5.82;3.55;;;16.00;99.90;;;;;;5046717;28;20039;-74
2024/01/30 01:12:43;;;;;;;8.63;3.75;;;16.00;99.90;;;;;;5053236;28;20342;-76
2024/01/30 01:15:09;;;;;;;6.82;3.92;;;16.00;99.90;;;;;;5049255;28;20538;-76
2024/01/30 01:17:36;;;;;;;5.90;4.03;;;16.00;99.90;;;;;;5050914;28;20037;-75
2024/01/30 01:20:03;;;;;;;;;;;16.00;99.90;;;;;;5052994;28;20044;-75
2024/01/30 01:22:29;;;;;;;5.20;3.33;;;16.00;99.90;;;;;;5053216;28;19916;-74
2024/01/30 01:24:54;;;;;;;6.60;3.87;;;16.00;99.90;;;;;;5053306;28;20036;-74
2024/01/30 01:27:21;;;;;;;6.37;4.20;;;15.90;99.90;;;;;;5051950;28;20474;-74
2024/01/30 01:29:46;;;;;;;6.55;3.83;;;16.00;99.90;;;;;;5051726;28;20025;-74
2024/01/30 01:32:12;;;;;;;5.50;3.70;;;15.90;99.90;;;;;;5051740;28;20047;-75
2024/01/30 01:34:38;;;;;;;5.77;3.80;;;16.00;99.90;;;;;;5051032;28;20031;-76
2024/01/30 01:37:04;;;;;;;5.00;3.50;;;16.00;99.90;;;;;;5051191;28;20044;-74
2024/01/30 01:39:29;;;;;;;5.03;3.50;;;15.90;99.90;;;;;;5051778;28;20039;-74
2024/01/30 01:41:55;;;;;;;4.97;3.67;;;15.90;99.90;;;;;;5051513;28;20025;-74
2024/01/30 01:44:21;;;;;;;5.63;3.35;;;15.90;99.90;;;;;;5052805;28;20025;-74
2024/01/30 01:46:48;;;;;;;5.17;3.10;;;15.90;99.90;;;;;;5052650;28;20064;-76
2024/01/30 01:49:14;;;;;;;6.32;3.55;;;15.90;99.90;;;;;;5051431;28;20060;-74
2024/01/30 01:51:41;;;;;;;4.63;3.60;;;15.90;99.90;;;;;;5051542;28;20086;-75
2024/01/30 01:54:08;;;;;;;5.43;3.38;;;15.90;99.90;;;;;;5052032;28;20047;-74
2024/01/30 01:56:34;;;;;;;;;;;15.90;99.90;;;;;;5052402;28;20489;-76
2024/01/30 01:59:04;;;;;;;5.47;3.63;;;15.90;99.90;;;;;;5052201;28;19908;-76
2024/01/30 02:01:32;;;;;;;4.10;3.03;;;15.90;99.90;;;;;;5045373;28;20474;-75
2024/01/30 02:03:59;;;;;;;4.72;3.58;;;15.90;99.90;;;;;;5051392;28;20728;-77
2024/01/30 02:06:25;;;;;;;6.22;3.40;;;15.90;99.90;;;;;;5050754;28;20444;-74
2024/01/30 02:08:50;;;;;;;5.03;3.30;;;15.80;99.90;;;;;;5044051;28;20116;-75
2024/01/30 02:11:16;;;;;;;5.30;3.33;;;15.80;99.90;;;;;;5049785;28;20029;-75
2024/01/30 02:13:42;;;;;;;8.13;3.20;;;15.80;99.90;;;;;;5051641;28;20033;-77
2024/01/30 02:16:08;;;;;;;6.10;3.43;;;15.80;99.90;;;;;;5051415;28;20025;-77
2024/01/30 02:18:34;;;;;;;3.97;2.70;;;15.80;99.90;;;;;;5047080;28;20028;-74
2024/01/30 02:21:04;;;;;;;4.90;3.53;;;15.80;99.90;;;;;;5050896;28;20441;-76
2024/01/30 02:23:32;;;;;;;5.80;3.42;;;15.80;99.90;;;;;;5050559;28;20086;-74
2024/01/30 02:25:58;;;;;;;4.72;3.53;;;15.80;99.90;;;;;;5050009;28;20053;-74
2024/01/30 02:28:24;;;;;;;5.40;3.23;;;15.80;99.90;;;;;;5050843;28;20056;-75
2024/01/30 02:30:50;;;;;;;5.07;3.43;;;15.80;99.90;;;;;;5050219;28;20078;-74
2024/01/30 02:33:16;;;;;;;4.43;3.27;;;15.80;99.90;;;;;;5050825;28;20282;-74
2024/01/30 02:35:41;;;;;;;3.53;2.70;;;15.80;99.90;;;;;;5050769;28;20025;-75
2024/01/30 02:38:07;;;;;;;3.63;2.83;;;15.70;99.90;;;;;;5049898;28;20045;-74
2024/01/30 02:40:33;;;;;;;4.43;3.10;;;15.70;99.90;;;;;;5048440;28;20071;-74
2024/01/30 02:43:00;;;;;;;8.37;3.87;;;15.70;99.90;;;;;;5047463;28;20417;-74
2024/01/30 02:45:25;;;;;;;;;;;15.70;99.90;;;;;;5050671;28;20533;-76
2024/01/30 02:47:51;;;;;;;5.00;3.30;;;15.70;99.90;;;;;;5050532;28;20003;-76
2024/01/30 02:50:17;;;;;;;4.30;3.10;;;15.70;99.90;;;;;;5050121;28;20104;-74
2024/01/30 02:52:46;;;;;;;3.97;2.72;;;15.70;99.90;;;;;;5051334;28;20036;-74
2024/01/30 02:55:11;;;;;;;5.55;2.97;;;15.70;99.90;;;;;;5051615;28;20025;-77
2024/01/30 02:57:38;;;;;;;3.57;3.13;;;15.70;99.90;;;;;;5051374;28;20047;-74
2024/01/30 03:00:06;;;;;;;4.35;2.97;;;15.70;99.90;;;;;;5051846;28;20028;-74
2024/01/30 03:02:32;;;;;;;4.82;2.88;;;15.70;99.90;;;;;;5050075;28;20646;-75
2024/01/30 03:04:58;;;;;;;4.70;2.97;;;15.70;99.90;;;;;;5050860;28;20083;-74
2024/01/30 03:07:24;;;;;;;5.45;3.15;;;15.70;99.90;;;;;;5049725;28;20033;-76
2024/01/30 03:09:49;;;;;;;6.23;3.20;;;15.70;99.90;;;;;;5049836;28;20025;-74
2024/01/30 03:12:15;;;;;;;5.07;3.30;;;15.70;99.90;;;;;;5051414;28;20028;-75
2024/01/30 03:14:41;;;;;;;4.57;3.13;;;15.70;99.90;;;;;;5049747;28;20041;-75
2024/01/30 03:17:06;;;;;;;6.03;2.93;;;15.70;99.90;;;;;;5047597;28;20025;-74
2024/01/30 03:19:32;;;;;;;5.43;2.97;;;15.70;99.90;;;;;;5049670;28;20086;-75
2024/01/30 03:21:58;;;;;;;4.90;2.97;;;15.70;99.90;;;;;;5049694;28;20466;-74
2024/01/30 03:24:24;;;;;;;5.22;3.13;;;15.70;99.90;;;;;;5050430;28;20394;-74
2024/01/30 03:26:50;;;;;;;5.80;2.80;;;15.60;99.90;;;;;;5049795;28;20033;-74
2024/01/30 03:29:15;;;;;;;4.03;2.80;;;15.60;99.90;;;;;;5049785;28;20029;-75
2024/01/30 03:31:41;;;;;;;5.03;3.13;;;15.60;99.90;;;;;;5049245;28;20382;-74
2024/01/30 03:34:07;;;;;;;5.77;3.10;;;15.60;99.90;;;;;;5051076;28;20029;-79
2024/01/30 03:36:34;;;;;;;4.53;3.00;;;15.60;99.90;;;;;;5048683;28;20025;-74
2024/01/30 03:39:00;;;;;;;5.90;3.00;;;15.60;99.90;;;;;;5049692;28;20029;-74
2024/01/30 03:41:26;;;;;;;5.82;3.28;;;15.60;99.90;;;;;;5049106;28;20031;-77
2024/01/30 03:43:52;;;;;;;4.43;2.70;;;15.60;99.90;;;;;;5048602;28;20111;-75
2024/01/30 03:46:18;;;;;;;5.90;3.33;;;15.60;99.90;;;;;;5049310;28;21078;-76
2024/01/30 03:48:45;;;;;;;4.37;2.93;;;15.60;99.90;;;;;;5050519;28;20029;-74
2024/01/30 03:51:15;;;;;;;5.78;2.88;;;15.60;99.90;;;;;;5051125;28;20055;-75
2024/01/30 03:53:42;;;;;;;6.75;2.97;;;15.60;99.90;;;;;;5050481;28;20043;-76
2024/01/30 03:56:08;;;;;;;3.85;2.72;;;15.60;99.90;;;;;;5050503;28;20025;-74
2024/01/30 03:58:34;;;;;;;4.68;3.03;;;15.50;99.90;;;;;;5049124;28;20063;-77
2024/01/30 04:01:00;;;;;;;4.73;2.70;;;15.50;99.90;;;;;;5042567;28;20025;-75
2024/01/30 04:03:25;;;;;;;4.93;3.23;;;15.50;99.90;;;;;;5048509;28;20557;-74
2024/01/30 04:05:54;;;;;;;4.73;2.87;;;15.50;99.90;;;;;;5044493;28;20021;-75
2024/01/30 04:08:20;;;;;;;4.82;3.05;;;15.50;99.90;;;;;;5039665;28;20471;-77
2024/01/30 04:10:46;;;;;;;4.60;2.67;;;15.50;99.90;;;;;;5038884;28;20113;-74
2024/01/30 04:13:12;;;;;;;6.25;2.95;;;15.50;99.90;;;;;;5043425;28;20273;-76
2024/01/30 04:15:38;;;;;;;4.70;3.10;;;15.50;99.90;;;;;;5046629;28;20655;-74
2024/01/30 04:18:04;;;;;;;4.10;2.72;;;15.50;99.90;;;;;;5037811;28;20032;-74
2024/01/30 04:20:30;;;;;;;4.43;3.00;;;15.50;99.90;;;;;;5050039;28;20068;-74
2024/01/30 04:22:56;;;;;;;5.90;2.83;;;15.50;99.90;;;;;;5049188;28;20072;-75
2024/01/30 04:25:22;;;;;;;3.57;2.83;;;15.50;99.90;;;;;;5048935;28;20063;-74
2024/01/30 04:27:48;;;;;;;5.57;3.57;;;15.50;99.90;;;;;;5049249;28;20036;-76
2024/01/30 04:30:14;;;;;;;3.42;2.42;;;15.50;99.90;;;;;;5049142;28;20486;-75
2024/01/30 04:32:40;;;;;;;4.18;2.83;;;15.50;99.90;;;;;;5049833;28;20024;-75
2024/01/30 04:35:06;;;;;;;4.50;3.10;;;15.50;99.90;;;;;;5048408;28;20033;-74
2024/01/30 04:37:32;;;;;;;4.28;2.75;;;15.50;99.90;;;;;;5048319;28;20045;-75
2024/01/30 04:39:57;;;;;;;5.63;3.20;;;15.40;99.90;;;;;;5048346;28;20493;-75
2024/01/30 04:42:23;;;;;;;5.53;2.53;;;15.40;99.90;;;;;;5049185;28;20068;-74
2024/01/30 04:44:50;;;;;;;3.37;2.50;;;15.40;99.90;;;;;;5047962;28;20486;-75
2024/01/30 04:47:15;;;;;;;5.00;3.10;;;15.40;99.90;;;;;;5049888;28;20096;-77
2024/01/30 04:49:41;;;;;;;5.30;3.13;;;15.40;99.90;;;;;;5048983;28;20119;-78
2024/01/30 04:52:08;;;;;;;5.13;2.72;;;15.40;99.90;;;;;;5050195;28;20025;-74
2024/01/30 04:54:35;;;;;;;3.58;2.60;;;15.40;99.90;;;;;;5052052;28;20041;-75
2024/01/30 04:57:01;;;;;;;3.63;2.78;;;15.40;99.90;;;;;;5046160;28;20024;-74
2024/01/30 04:59:27;;;;;;;7.47;2.67;;;15.40;99.90;;;;;;5052910;28;20028;-74
2024/01/30 05:01:53;;;;;;;3.90;2.47;;;15.40;99.90;;;;;;5049046;28;20041;-74
2024/01/30 05:04:19;;;;;;;4.47;2.93;;;15.40;99.90;;;;;;5038669;28;20389;-75
2024/01/30 05:06:45;;;;;;;3.27;2.50;;;15.40;99.90;;;;;;5051924;28;20071;-75
2024/01/30 05:09:11;;;;;;;6.63;2.60;;;15.40;99.90;;;;;;5048408;28;20029;-77
2024/01/30 05:11:41;;;;;;;4.45;2.70;;;15.30;99.90;;;;;;5047271;28;20028;-74
2024/01/30 05:14:08;;;;;;;3.83;2.83;;;15.40;99.90;;;;;;5049040;28;20037;-77
2024/01/30 05:16:34;;;;;;;6.57;3.08;;;15.40;99.90;;;;;;5045446;28;20133;-77
2024/01/30 05:19:00;;;;;;;4.53;2.83;;;15.40;99.90;;;;;;5045310;28;20459;-75
2024/01/30 05:21:25;;;;;;;4.97;2.87;;;15.30;99.90;;;;;;5041762;28;20391;-74
2024/01/30 05:23:51;;;;;;;4.33;2.70;;;15.30;99.90;;;;;;5039422;28;20029;-76
2024/01/30 05:26:17;;;;;;;4.37;2.80;;;15.30;99.90;;;;;;5043350;28;20083;-75
2024/01/30 05:28:46;;;;;;;4.15;2.75;;;15.30;99.90;;;;;;5045256;28;20371;-74
2024/01/30 05:31:12;;;;;;;5.53;2.90;;;15.30;99.90;;;;;;5048043;28;20402;-75
2024/01/30 05:33:38;;;;;;;3.80;2.73;;;15.30;99.90;;;;;;5042397;28;20029;-75
2024/01/30 05:36:04;;;;;;;5.88;2.88;;;15.30;99.90;;;;;;5047355;28;20497;-74
2024/01/30 05:38:33;;;;;;;4.23;2.83;;;15.30;99.90;;;;;;5043062;28;20057;-74
2024/01/30 05:40:59;;;;;;;3.58;2.67;;;15.30;99.90;;;;;;5049338;28;20029;-74
2024/01/30 05:43:25;;;;;;;5.03;3.10;;;15.30;99.90;;;;;;5040303;28;20126;-74
2024/01/30 05:45:52;;;;;;;3.92;2.47;;;15.30;99.90;;;;;;5043418;28;20040;-77
2024/01/30 05:48:18;;;;;;;3.50;2.40;;;15.30;99.90;;;;;;5041545;28;20041;-74
2024/01/30 05:50:44;;;;;;;4.63;3.10;;;15.30;99.90;;;;;;5043546;28;20167;-74
2024/01/30 05:53:10;;;;;;;;;;;15.30;99.90;;;;;;5041911;28;20434;-75
2024/01/30 05:55:36;;;;;;;4.70;2.60;;;15.30;99.90;;;;;;5049775;28;19992;-76
2024/01/30 05:58:02;;;;;;;4.03;2.80;;;15.30;99.90;;;;;;5044581;28;20398;-76
2024/01/30 06:00:27;;;;;;;3.53;2.40;;;15.30;99.90;;;;;;5046441;28;20466;-75
2024/01/30 06:02:53;;;;;;;4.27;2.33;;;15.30;99.90;;;;;;5044808;28;20499;-75
2024/01/30 06:05:19;;;;;;;4.90;2.40;;;15.30;99.90;;;;;;5039501;28;20116;-74
2024/01/30 06:07:45;;;;;;;4.17;2.63;;;15.30;99.90;;;;;;5042846;28;20033;-76
2024/01/30 06:10:11;;;;;;;2.83;2.30;;;15.30;99.90;;;;;;5043736;28;20486;-74
2024/01/30 06:12:37;;;;;;;4.27;2.73;;;15.30;99.90;;;;;;5048180;28;20254;-75
2024/01/30 06:15:04;;;;;;;3.83;2.20;;;15.20;99.90;;;;;;5043451;28;20029;-77
2024/01/30 06:17:29;;;;;;;2.75;2.00;;;15.20;99.90;;;;;;5044924;28;20036;-75
2024/01/30 06:19:55;;;;;;;3.53;2.57;;;15.20;99.90;;;;;;5050937;28;20025;-75
2024/01/30 06:22:21;;;;;;;4.27;2.67;;;15.20;99.90;;;;;;5050614;28;20107;-75
2024/01/30 06:24:48;;;;;;;4.17;2.40;;;15.20;99.90;;;;;;5050406;28;20036;-74
2024/01/30 06:27:15;;;;;;;3.33;2.63;;;15.20;99.90;;;;;;5050816;28;20037;-75
2024/01/30 06:29:42;;;;;;;2.85;2.28;;;15.20;99.90;;;;;;5051979;28;20028;-75
2024/01/30 06:32:08;;;;;;;6.93;2.70;;;15.20;99.90;;;;;;5052128;28;20037;-75
2024/01/30 06:34:34;;;;;;;3.95;2.63;;;15.20;99.90;;;;;;5050434;28;20037;-78
2024/01/30 06:37:00;;;;;;;2.70;2.30;;;15.20;99.90;;;;;;5050094;28;20486;-74
2024/01/30 06:39:27;;;;;;;3.33;2.37;;;15.20;99.90;;;;;;5050598;28;20033;-75
2024/01/30 06:41:53;;;;;;;3.33;2.35;;;15.30;99.90;;;;;;5050594;28;20108;-75
2024/01/30 06:44:18;;;;;;;6.47;2.70;;;15.20;99.90;;;;;;5050515;28;20048;-76
2024/01/30 06:46:44;;;;;;;3.53;2.43;;;15.20;99.90;;;;;;5050309;28;20190;-75
2024/01/30 06:49:10;;;;;;;3.17;2.20;;;15.20;99.90;;;;;;5049666;28;20063;-74
2024/01/30 06:51:35;;;;;;;3.00;2.10;;;15.20;99.90;;;;;;5050026;28;20033;-75
2024/01/30 06:54:01;;;;;;;3.93;2.63;;;15.20;99.90;;;;;;5051640;28;20108;-74
2024/01/30 06:56:27;;;;;;;4.03;2.50;;;15.20;99.90;;;;;;5050391;28;20056;-75
2024/01/30 06:58:53;;;;;;;4.57;2.38;;;15.20;99.90;;;;;;5051678;28;20052;-76
2024/01/30 07:01:19;;;;;;;3.40;2.20;;;15.20;99.90;;;;;;5050957;28;20075;-75
2024/01/30 07:03:45;;;;;;;3.80;2.47;;;15.20;99.90;;;;;;5049778;28;20098;-75
2024/01/30 07:06:10;;;;;;;3.13;2.50;;;15.20;99.90;;;;;;5050166;28;20426;-75
2024/01/30 07:08:38;;;;;;;4.20;2.20;;;15.20;99.90;;;;;;5038811;28;20034;-74
2024/01/30 07:11:05;;;;;;;5.13;3.08;;;15.20;99.90;;;;;;5049553;28;20028;-77
2024/01/30 07:13:31;;;;;;;3.72;2.60;;;15.20;99.90;;;;;;5051510;28;20106;-78
2024/01/30 07:15:57;;;;;;;3.43;2.30;;;15.20;99.90;;;;;;5047067;28;20025;-77
2024/01/30 07:18:22;;;;;;;2.80;2.13;;;15.20;99.90;;;;;;5046841;28;20025;-75
2024/01/30 07:20:49;;;;;;;2.77;2.00;;;15.20;99.90;;;;;;5049440;28;20086;-74
2024/01/30 07:23:17;;;;;;;3.50;2.72;;;15.20;99.90;;;;;;5050421;28;20029;-74
2024/01/30 07:25:48;;;;;;;2.88;2.30;;;15.20;99.90;;;;;;5050495;28;20037;-74
2024/01/30 07:28:16;;;;;;;4.13;2.85;;;15.20;99.90;;;;;;5048810;28;20098;-78
2024/01/30 07:30:42;;;;;;;3.45;2.55;;;15.20;99.90;;;;;;5049702;28;20450;-74
2024/01/30 07:33:08;;;;;;;3.75;2.50;;;15.20;99.90;;;;;;5049464;28;20060;-73
2024/01/30 07:35:35;;;;;;;3.13;2.17;;;15.20;99.90;;;;;;5041353;28;20103;-74
2024/01/30 07:38:00;;;;;;;3.25;2.47;;;15.20;99.90;;;;;;5046473;28;20045;-77
2024/01/30 07:40:26;;;;;;;2.77;1.93;;;15.20;99.90;;;;;;5050690;28;20542;-73
2024/01/30 07:42:53;;;;;;;4.30;2.67;;;15.20;99.90;;;;;;5048504;28;20033;-75
2024/01/30 07:45:24;;;;;;;10.10;2.63;;;15.20;99.90;;;;;;5045258;28;20029;-75
2024/01/30 07:47:50;;;;;;;13.35;3.13;;;15.20;99.90;;;;;;5039094;28;20112;-73
2024/01/30 07:50:16;;;;;;;12.40;3.17;;;15.20;99.90;;;;;;5043510;28;20036;-74
2024/01/30 07:52:45;;;;;;;17.37;3.10;;;15.20;99.90;;;;;;5046933;28;20033;-77
2024/01/30 07:55:12;;;;;;;9.07;2.67;;;15.20;99.90;;;;;;5041677;28;20032;-74
2024/01/30 07:57:41;;;;;;;;;;;15.30;99.90;;;;;;5034139;28;20033;-78
2024/01/30 08:00:07;;;;;;;10.18;6.65;;;15.30;99.90;;;;;;5048764;28;19915;-76
2024/01/30 08:02:33;;;;;;;9.20;5.17;;;15.30;99.90;;;;;;5040582;28;20030;-75
2024/01/30 08:04:58;;;;;;;17.93;6.33;;;15.20;99.90;;;;;;5047196;28;20397;-74
2024/01/30 08:07:24;;;;;;;20.00;5.80;;;15.30;99.90;;;;;;5041471;28;20036;-77
2024/01/30 08:09:50;;;;;;;152.73;78.10;;;15.30;99.90;;;;;;5047467;28;20110;-74
2024/01/30 08:12:16;;;;;;;87.43;41.80;;;15.30;99.90;;;;;;5041487;28;20040;-77
2024/01/30 08:14:41;;;;;;;99.43;51.33;;;15.30;99.90;;;;;;5042901;28;20025;-77
2024/01/30 08:17:07;;;;;;;102.57;51.77;;;15.30;99.90;;;;;;5049085;28;20033;-74
2024/01/30 08:19:33;;;;;;;107.83;63.50;;;15.30;99.90;;;;;;5047394;28;20077;-77
2024/01/30 08:21:59;;;;;;;96.20;51.67;;;15.30;99.90;;;;;;5037540;28;20045;-74
2024/01/30 08:24:25;;;;;;;81.93;45.33;;;15.40;99.90;;;;;;5044901;28;20286;-77
2024/01/30 08:26:50;;;;;;;72.03;41.53;;;15.40;99.90;;;;;;5045609;28;20048;-76
2024/01/30 08:29:16;;;;;;;75.57;41.50;;;15.40;99.90;;;;;;5050823;28;20381;-74
2024/01/30 08:31:42;;;;;;;67.93;38.70;;;15.40;99.90;;;;;;5046181;28;20049;-76
2024/01/30 08:34:08;;;;;;;75.33;40.57;;;15.40;99.90;;;;;;5049413;28;20080;-75
2024/01/30 08:36:33;;;;;;;64.50;36.27;;;15.40;99.90;;;;;;5039922;28;20068;-77
2024/01/30 08:38:59;;;;;;;66.97;36.17;;;15.40;99.90;;;;;;5049960;28;20141;-76
2024/01/30 08:41:25;;;;;;;58.13;35.27;;;15.40;99.90;;;;;;5049565;28;20043;-75
2024/01/30 08:43:52;;;;;;;59.20;31.10;;;15.40;99.90;;;;;;5059258;28;20082;-74
2024/01/30 08:46:18;;;;;;;59.47;30.58;;;15.50;99.90;;;;;;5052553;28;20025;-78
2024/01/30 08:48:44;;;;;;;54.53;29.85;;;15.50;99.90;;;;;;5045953;28;20045;-75
2024/01/30 08:51:11;;;;;;;51.83;29.17;;;15.50;99.90;;;;;;5040922;28;20025;-75
2024/01/30 08:53:36;;;;;;;46.97;28.15;;;15.50;99.90;;;;;;5041945;28;20486;-74
2024/01/30 08:56:03;;;;;;;69.33;35.03;;;15.50;99.90;;;;;;5037344;28;20038;-75
2024/01/30 08:58:29;;;;;;;55.63;29.42;;;15.50;99.90;;;;;;5039616;28;20035;-77
2024/01/30 09:00:55;;;;;;;57.03;28.83;;;15.50;99.90;;;;;;5044110;28;20029;-75
2024/01/30 09:03:21;;;;;;;55.80;28.63;;;15.50;99.90;;;;;;5043449;28;20033;-77
2024/01/30 09:05:46;;;;;;;88.47;51.97;;;15.50;99.90;;;;;;5046916;28;20092;-74
2024/01/30 09:08:12;;;;;;;94.07;57.37;;;15.60;99.90;;;;;;5043804;28;20029;-75
2024/01/30 09:10:38;;;;;;;102.80;70.87;;;15.60;99.90;;;;;;5039520;28;20111;-77
2024/01/30 09:13:03;;;;;;;80.63;54.80;;;15.60;99.90;;;;;;5049230;28;20474;-78
2024/01/30 09:15:29;;;;;;;111.73;68.83;;;15.70;99.90;;;;;;5051018;28;20703;-78
2024/01/30 09:17:55;;;;;;;107.17;75.03;;;15.70;99.90;;;;;;5051888;28;20079;-76
2024/01/30 09:20:22;;;;;;;115.03;72.90;;;15.80;99.90;;;;;;5050032;28;20123;-78
2024/01/30 09:22:49;;;;;;;106.13;67.38;;;15.80;99.90;;;;;;5048662;28;20037;-77
2024/01/30 09:25:14;;;;;;;;;;;15.90;99.90;;;;;;5045273;28;20036;-75
2024/01/30 09:27:40;;;;;;;95.40;64.33;;;16.00;99.90;;;;;;5047183;28;20269;-76
2024/01/30 09:30:06;;;;;;;87.47;60.60;;;16.00;99.90;;;;;;5038906;28;20462;-74
2024/01/30 09:32:32;;;;;;;86.30;57.00;;;16.00;99.90;;;;;;5047506;28;20108;-77
2024/01/30 09:34:58;;;;;;;84.40;56.67;;;16.00;99.90;;;;;;5049453;28;20844;-76
2024/01/30 09:37:24;;;;;;;87.07;57.90;;;16.00;99.90;;;;;;5072082;28;20037;-76
2024/01/30 09:39:50;;;;;;;78.10;55.33;;;16.10;99.90;;;;;;5043192;28;20063;-76
2024/01/30 09:42:28;;;;;;;74.67;50.93;;;16.10;99.90;;;;;;5049197;28;20496;-77
2024/01/30 09:44:55;;;;;;;84.28;60.05;;;16.10;99.90;;;;;;5044454;28;20033;-75
2024/01/30 09:47:21;;;;;;;77.05;54.60;;;16.20;99.90;;;;;;5051243;28;20075;-75
2024/01/30 09:49:47;;;;;;;72.83;51.40;;;16.20;99.90;;;;;;5044576;28;20025;-75
2024/01/30 09:52:13;;;;;;;80.03;50.85;;;16.20;99.90;;;;;;5039907;28;20033;-78
2024/01/30 09:54:40;;;;;;;70.13;49.58;;;16.30;99.90;;;;;;5046237;28;20034;-78
2024/01/30 09:57:07;;;;;;;63.60;46.75;;;16.30;99.90;;;;;;5044599;28;20128;-78
2024/01/30 09:59:32;;;;;;;;;;;16.40;99.90;;;;;;5039706;28;20030;-76
2024/01/30 10:01:58;;;;;;;62.08;42.85;;;16.40;99.90;;;;;;5042523;28;19928;-80
2024/01/30 10:04:24;;;;;;;65.07;43.13;;;16.50;99.90;;;;;;5043529;28;20124;-78
2024/01/30 10:06:51;;;;;;;66.27;43.37;;;16.50;99.90;;;;;;5034378;28;20040;-78
2024/01/30 10:09:17;;;;;;;56.72;40.70;;;16.50;99.90;;;;;;5046119;28;20083;-79
2024/01/30 10:11:42;;;;;;;54.80;40.50;;;16.50;99.90;;;;;;5051004;28;20647;-78
2024/01/30 10:14:08;;;;;;;58.50;39.00;;;16.60;99.90;;;;;;5043089;28;20039;-79
2024/01/30 10:16:37;;;;;;;187.97;102.03;;;16.70;99.90;;;;;;5046717;28;20036;-77
2024/01/30 10:19:02;;;;;;;61.22;41.88;;;16.70;99.90;;;;;;5041310;28;20021;-76
2024/01/30 10:21:30;;;;;;;60.90;41.63;;;16.80;99.90;;;;;;5039803;28;20036;-78
2024/01/30 10:23:55;;;;;;;62.35;42.67;;;16.90;99.90;;;;;;5039448;28;20061;-77
2024/01/30 10:26:22;;;;;;;57.57;39.80;;;16.80;99.90;;;;;;5046456;28;20161;-77
2024/01/30 10:28:48;;;;;;;55.42;37.80;;;16.80;99.90;;;;;;5042628;28;20355;-78
2024/01/30 10:31:18;;;;;;;;;;;16.80;99.90;;;;;;5046026;28;20061;-79
2024/01/30 10:33:45;;;;;;;58.13;35.15;;;16.90;99.90;;;;;;5047861;28;19912;-75
2024/01/30 10:36:14;;;;;;;54.42;34.97;;;17.00;99.90;;;;;;5048743;28;20178;-76
2024/01/30 10:38:46;;;;;;;45.28;32.80;;;17.10;99.90;;;;;;5043671;28;20049;-78
2024/01/30 10:41:14;;;;;;;48.38;32.53;;;17.30;99.90;;;;;;5041611;28;20120;-76
2024/01/30 10:43:54;;;;;;;40.67;29.10;;;18.10;99.90;;;;;;5044050;28;20466;-77
2024/01/30 10:46:22;;;;;;;43.55;29.90;;;18.10;99.90;;;;;;5036760;28;20025;-79
2024/01/30 10:48:58;;;;;;;126.25;78.72;;;18.00;99.90;;;;;;5038329;28;20026;-76
2024/01/30 10:51:28;;;;;;;58.70;37.88;;;18.00;99.90;;;;;;5041824;28;20400;-75
2024/01/30 10:53:53;;;;;;;59.33;38.67;;;18.10;99.90;;;;;;5053671;28;20034;-75
2024/01/30 10:56:23;;;;;;;51.73;34.77;;;18.00;99.90;;;;;;5047360;28;20033;-78
2024/01/30 10:58:52;;;;;;;49.47;32.38;;;17.90;99.90;;;;;;5046804;28;20123;-77
2024/01/30 11:01:25;;;;;;;47.13;29.60;;;17.80;99.90;;;;;;5041326;28;20043;-79
2024/01/30 11:03:52;;;;;;;44.50;29.45;;;17.70;99.90;;;;;;5040159;28;20035;-77
2024/01/30 11:06:20;;;;;;;;;;;17.60;99.90;;;;;;5048167;28;20043;-77
2024/01/30 11:08:46;;;;;;;41.00;25.90;;;17.50;99.90;;;;;;5040490;28;19916;-76
2024/01/30 11:11:12;;;;;;;36.58;24.92;;;17.40;99.90;;;;;;5047010;28;20064;-75
2024/01/30 11:13:37;;;;;;;39.27;24.33;;;17.40;99.90;;;;;;5043252;28;20067;-77
2024/01/30 11:16:04;;;;;;;33.13;22.63;;;17.40;99.90;;;;;;5045223;28;20029;-78
2024/01/30 11:18:31;;;;;;;37.80;22.20;;;17.30;99.90;;;;;;5050155;28;20033;-75
2024/01/30 11:21:03;;;;;;;;;;;17.30;99.90;;;;;;5050118;28;20081;-73
2024/01/30 11:23:30;;;;;;;34.35;22.02;;;17.30;99.90;;;;;;5044130;28;19991;-74
2024/01/30 11:25:56;;;;;;;;;;;17.20;99.90;;;;;;5042060;28;20025;-75
2024/01/30 11:28:22;;;;;;;34.28;20.48;;;17.20;99.90;;;;;;5048291;28;19909;-73
2024/01/30 11:30:50;;;;;;;29.08;18.42;;;17.20;99.90;;;;;;5046222;28;20028;-76
2024/01/30 11:33:30;;;;;;;27.15;17.88;;;17.20;99.90;;;;;;5045125;28;20056;-77
2024/01/30 11:35:59;;;;;;;27.58;16.95;;;17.20;99.90;;;;;;5038818;28;20033;-78
2024/01/30 11:38:27;;;;;;;27.50;17.40;;;17.30;99.90;;;;;;5044886;28;20045;-76
2024/01/30 11:40:57;;;;;;;26.83;17.52;;;17.30;99.90;;;;;;5038378;28;20087;-75
2024/01/30 11:43:23;;;;;;;20.60;15.57;;;17.30;99.90;;;;;;5036137;28;20033;-79
2024/01/30 11:45:50;;;;;;;23.58;15.75;;;17.30;99.90;;;;;;5045738;28;20120;-82
2024/01/30 11:48:15;;;;;;;24.58;15.50;;;17.30;99.90;;;;;;5044937;28;20037;-76
2024/01/30 11:50:42;;;;;;;21.00;14.47;;;17.20;99.90;;;;;;5047393;28;20075;-77
2024/01/30 11:53:08;;;;;;;24.98;13.80;;;17.20;99.90;;;;;;5049050;28;20100;-76
2024/01/30 11:55:36;;;;;;;25.20;14.20;;;17.20;99.90;;;;;;5048065;28;20032;-78
2024/01/30 11:58:02;;;;;;;30.60;13.85;;;17.20;99.90;;;;;;5048899;28;20021;-78
2024/01/30 12:00:28;;;;;;;21.75;12.93;;;17.20;99.90;;;;;;5048137;28;20790;-78
2024/01/30 12:02:59;;;;;;;21.02;13.45;;;17.20;99.90;;;;;;5042708;28;20040;-79
2024/01/30 12:05:26;;;;;;;26.05;13.57;;;17.20;99.90;;;;;;5045424;28;20064;-77
2024/01/30 12:07:52;;;;;;;23.45;12.68;;;17.20;99.90;;;;;;5052646;28;20060;-78
2024/01/30 12:10:18;;;;;;;21.67;11.90;;;17.30;99.90;;;;;;5051954;28;20143;-76
2024/01/30 12:12:55;;;;;;;19.67;10.95;;;17.30;99.90;;;;;;5045222;28;20260;-77
2024/01/30 12:15:22;;;;;;;19.15;11.43;;;17.40;99.90;;;;;;5055874;28;20023;-77
2024/01/30 12:17:47;;;;;;;23.23;10.50;;;17.40;99.90;;;;;;5036543;28;20728;-76
2024/01/30 12:20:15;;;;;;;14.00;9.63;;;17.40;99.90;;;;;;5051607;28;20113;-77
2024/01/30 12:22:48;;;;;;;15.82;9.57;;;17.40;99.90;;;;;;5044626;28;20033;-75
2024/01/30 12:25:16;;;;;;;15.70;9.68;;;17.40;99.90;;;;;;5048991;28;20041;-76
2024/01/30 12:27:50;;;;;;;15.40;9.18;;;17.40;99.90;;;;;;5048355;28;20025;-75
2024/01/30 12:30:17;;;;;;;14.90;9.20;;;17.40;99.90;;;;;;5051598;28;20033;-76
2024/01/30 12:32:44;;;;;;;14.82;8.70;;;17.40;99.90;;;;;;5056316;28;20062;-75
2024/01/30 12:35:14;;;;;;;12.95;8.32;;;17.30;99.90;;;;;;5045779;28;20037;-76
2024/01/30 12:37:41;;;;;;;15.35;8.68;;;17.30;99.90;;;;;;5073174;28;20053;-76
2024/01/30 12:40:13;;;;;;;11.68;7.53;;;17.30;99.90;;;;;;5048100;28;20033;-76